createdAt,value
2018-08-16T00:00:15.648Z,100474.14
2018-08-16T00:02:45.217Z,100469.75
2018-08-16T00:05:14.462Z,100469.42
2018-08-16T00:07:43.503Z,100465.74
2018-08-16T00:10:13.759Z,100469.41
2018-08-16T00:12:44.082Z,100469.73
2018-08-16T00:15:13.497Z,100467.16
2018-08-16T00:17:42.470Z,100470.69
2018-08-16T00:20:12.110Z,100466.52
2018-08-16T00:22:41.173Z,100470.96
2018-08-16T00:25:10.786Z,100471.03
2018-08-16T00:27:39.741Z,100472.47
2018-08-16T00:30:15.057Z,100477.32
2018-08-16T00:32:44.363Z,100473.14
2018-08-16T00:35:13.499Z,100470.36
2018-08-16T00:37:42.621Z,100466.83
2018-08-16T00:40:13.574Z,100468.09
2018-08-16T00:42:42.549Z,100469.98
2018-08-16T00:45:11.864Z,100472.12
2018-08-16T00:47:40.800Z,100468.06
2018-08-16T00:50:11.081Z,100464.11
2018-08-16T00:52:40.005Z,100464.25
2018-08-16T00:55:10.265Z,100471.32
2018-08-16T00:57:39.600Z,100465.42
2018-08-16T01:00:10.456Z,100464.06
2018-08-16T01:02:39.470Z,100463.27
2018-08-16T01:05:08.566Z,100464.92
2018-08-16T01:07:37.522Z,100464.83
2018-08-16T01:10:08.200Z,100462.27
2018-08-16T01:12:37.216Z,100464.22
2018-08-16T01:15:07.651Z,100465.58
2018-08-16T01:17:36.572Z,100463.86
2018-08-16T01:20:05.596Z,100467.13
2018-08-16T01:22:34.485Z,100465.55
2018-08-16T01:25:03.599Z,100459.64
2018-08-16T01:27:32.553Z,100461.98
2018-08-16T01:30:01.522Z,100456.52
2018-08-16T01:32:30.460Z,100464.70
2018-08-16T01:34:59.443Z,100463.70
2018-08-16T01:37:28.558Z,100460.58
2018-08-16T01:39:57.546Z,100458.11
2018-08-16T01:42:26.652Z,100459.66
2018-08-16T01:44:55.583Z,100467.67
2018-08-16T01:47:24.527Z,100466.91
2018-08-16T01:49:53.541Z,100455.06
2018-08-16T01:52:22.515Z,100458.00
2018-08-16T01:54:51.452Z,100452.83
2018-08-16T01:57:20.422Z,100447.69
2018-08-16T01:59:49.341Z,100446.89
2018-08-16T02:02:18.277Z,100446.03
2018-08-16T02:04:47.225Z,100440.92
2018-08-16T02:07:16.241Z,100445.77
2018-08-16T02:09:45.213Z,100443.33
2018-08-16T02:12:14.143Z,100439.93
2018-08-16T02:14:43.117Z,100441.05
2018-08-16T02:17:12.079Z,100448.05
2018-08-16T02:19:41.012Z,100441.28
2018-08-16T02:22:09.965Z,100440.66
2018-08-16T02:24:38.904Z,100440.85
2018-08-16T02:27:07.854Z,100445.34
2018-08-16T02:29:36.822Z,100449.56
2018-08-16T02:32:05.784Z,100451.61
2018-08-16T02:34:34.715Z,100453.38
2018-08-16T02:37:04.029Z,100447.97
2018-08-16T02:39:33.029Z,100448.77
2018-08-16T02:42:01.952Z,100450.05
2018-08-16T02:44:30.881Z,100453.87
2018-08-16T02:46:59.815Z,100454.17
2018-08-16T02:49:28.740Z,100450.98
2018-08-16T02:51:57.684Z,100453.61
2018-08-16T02:54:26.615Z,100455.76
2018-08-16T02:56:55.516Z,100449.98
2018-08-16T02:59:24.463Z,100446.29
2018-08-16T03:01:53.395Z,100444.90
2018-08-16T03:04:22.311Z,100444.34
2018-08-16T03:06:51.353Z,100449.69
2018-08-16T03:09:20.452Z,100443.94
2018-08-16T03:11:49.448Z,100443.48
2018-08-16T03:14:18.389Z,100446.69
2018-08-16T03:16:47.378Z,100442.14
2018-08-16T03:19:16.381Z,100444.48
2018-08-16T03:21:45.320Z,100450.31
2018-08-16T03:24:14.288Z,100453.34
2018-08-16T03:26:43.249Z,100456.22
2018-08-16T03:29:12.228Z,100454.31
2018-08-16T03:31:41.580Z,100455.42
2018-08-16T03:34:10.497Z,100452.16
2018-08-16T03:36:39.525Z,100456.05
2018-08-16T03:39:09.287Z,100457.27
2018-08-16T03:41:38.322Z,100452.79
2018-08-16T03:44:07.940Z,100457.77
2018-08-16T03:46:36.880Z,100452.42
2018-08-16T03:49:06.117Z,100457.27
2018-08-16T03:51:35.101Z,100464.40
2018-08-16T03:54:04.057Z,100462.81
2018-08-16T03:56:35.111Z,100458.49
2018-08-16T03:59:04.092Z,100466.48
2018-08-16T04:01:33.438Z,100461.06
2018-08-16T04:04:02.449Z,100460.15
2018-08-16T04:06:31.376Z,100458.07
2018-08-16T04:09:00.336Z,100451.24
2018-08-16T04:11:29.286Z,100453.02
2018-08-16T04:13:58.238Z,100457.80
2018-08-16T04:16:27.189Z,100451.91
2018-08-16T04:18:56.124Z,100457.94
2018-08-16T04:21:25.085Z,100453.32
2018-08-16T04:23:54.066Z,100453.81
2018-08-16T04:26:23.172Z,100456.03
2018-08-16T04:28:52.190Z,100453.45
2018-08-16T04:31:21.155Z,100458.23
2018-08-16T04:33:50.106Z,100454.97
2018-08-16T04:36:19.082Z,100461.43
2018-08-16T04:38:48.057Z,100458.36
2018-08-16T04:41:19.253Z,100453.41
2018-08-16T04:43:48.579Z,100455.39
2018-08-16T04:46:17.504Z,100455.08
2018-08-16T04:48:46.471Z,100456.80
2018-08-16T04:51:22.880Z,100453.00
2018-08-16T04:53:52.083Z,100452.80
2018-08-16T04:56:21.071Z,100455.15
2018-08-16T04:58:50.013Z,100459.80
2018-08-16T05:01:22.279Z,100449.53
2018-08-16T05:03:51.548Z,100451.80
2018-08-16T05:06:20.542Z,100452.73
2018-08-16T05:08:49.554Z,100450.23
2018-08-16T05:11:19.880Z,100452.00
2018-08-16T05:13:48.840Z,100450.27
2018-08-16T05:16:17.767Z,100451.06
2018-08-16T05:18:46.806Z,100444.67
2018-08-16T05:21:16.575Z,100445.80
2018-08-16T05:23:46.710Z,100445.34
2018-08-16T05:26:15.765Z,100454.34
2018-08-16T05:28:44.736Z,100447.98
2018-08-16T05:31:14.967Z,100446.63
2018-08-16T05:33:44.027Z,100450.39
2018-08-16T05:36:13.006Z,100450.72
2018-08-16T05:38:41.964Z,100448.50
2018-08-16T05:41:12.996Z,100447.74
2018-08-16T05:43:42.012Z,100449.97
2018-08-16T05:46:10.953Z,100449.20
2018-08-16T05:48:39.937Z,100441.38
2018-08-16T05:51:08.874Z,100440.70
2018-08-16T05:53:37.830Z,100444.59
2018-08-16T05:56:06.936Z,100437.55
2018-08-16T05:58:35.877Z,100433.77
2018-08-16T06:01:08.758Z,100432.59
2018-08-16T06:03:38.095Z,100430.81
2018-08-16T06:06:07.288Z,100435.88
2018-08-16T06:08:36.245Z,100436.01
2018-08-16T06:11:05.222Z,100427.31
2018-08-16T06:13:34.273Z,100428.65
2018-08-16T06:16:03.212Z,100428.40
2018-08-16T06:18:32.133Z,100425.44
2018-08-16T06:21:01.040Z,100424.16
2018-08-16T06:23:30.084Z,100422.25
2018-08-16T06:25:59.152Z,100425.66
2018-08-16T06:28:28.259Z,100415.27
2018-08-16T06:30:59.468Z,100418.03
2018-08-16T06:33:28.504Z,100417.17
2018-08-16T06:35:57.468Z,100421.67
2018-08-16T06:38:26.424Z,100416.13
2018-08-16T06:41:03.327Z,100416.82
2018-08-16T06:43:32.762Z,100414.84
2018-08-16T06:46:01.754Z,100406.66
2018-08-16T06:48:30.696Z,100414.14
2018-08-16T06:50:59.677Z,100406.21
2018-08-16T06:53:28.953Z,100398.84
2018-08-16T06:55:57.876Z,100401.48
2018-08-16T06:58:26.887Z,100404.34
2018-08-16T07:00:56.374Z,100402.55
2018-08-16T07:03:25.313Z,100398.77
2018-08-16T07:05:54.278Z,100392.50
2018-08-16T07:08:23.212Z,100397.72
2018-08-16T07:10:52.125Z,100395.04
2018-08-16T07:13:21.575Z,100389.58
2018-08-16T07:15:50.608Z,100395.81
2018-08-16T07:18:19.536Z,100394.68
2018-08-16T07:20:52.425Z,100395.48
2018-08-16T07:23:21.441Z,100386.80
2018-08-16T07:25:50.371Z,100387.29
2018-08-16T07:28:19.472Z,100391.98
2018-08-16T07:30:48.385Z,100394.34
2018-08-16T07:33:17.368Z,100395.78
2018-08-16T07:35:46.336Z,100393.77
2018-08-16T07:38:15.289Z,100391.62
2018-08-16T07:40:44.230Z,100389.82
2018-08-16T07:43:13.167Z,100390.81
2018-08-16T07:45:42.237Z,100391.73
2018-08-16T07:48:11.077Z,100384.33
2018-08-16T07:50:40.052Z,100386.80
2018-08-16T07:53:09.006Z,100379.97
2018-08-16T07:55:37.929Z,100374.02
2018-08-16T07:58:06.905Z,100371.19
2018-08-16T08:00:35.890Z,100367.37
2018-08-16T08:03:04.877Z,100367.38
2018-08-16T08:05:33.929Z,100365.49
2018-08-16T08:08:02.870Z,100368.98
2018-08-16T08:10:31.834Z,100363.36
2018-08-16T08:13:00.818Z,100362.41
2018-08-16T08:15:29.814Z,100367.82
2018-08-16T08:17:58.739Z,100357.30
2018-08-16T08:20:27.688Z,100359.95
2018-08-16T08:22:56.648Z,100364.52
2018-08-16T08:25:25.669Z,100355.40
2018-08-16T08:27:54.574Z,100358.27
2018-08-16T08:30:23.632Z,100356.27
2018-08-16T08:32:52.597Z,100354.83
2018-08-16T08:35:21.626Z,100346.30
2018-08-16T08:37:57.957Z,100340.93
2018-08-16T08:40:28.287Z,100331.19
2018-08-16T08:42:58.300Z,100331.14
2018-08-16T08:45:27.209Z,100325.33
2018-08-16T08:47:56.807Z,100324.12
2018-08-16T08:50:26.422Z,100324.45
2018-08-16T08:53:09.226Z,100324.78
2018-08-16T08:55:49.716Z,100322.19
2018-08-16T08:58:30.172Z,100316.75
2018-08-16T09:00:59.249Z,100318.95
2018-08-16T09:03:28.186Z,100308.64
2018-08-16T09:05:57.148Z,100299.50
2018-08-16T09:08:26.085Z,100307.45
2018-08-16T09:11:11.768Z,100307.84
2018-08-16T09:13:53.464Z,100309.47
2018-08-16T09:16:30.392Z,100308.98
2018-08-16T09:18:59.609Z,100302.80
2018-08-16T09:21:29.118Z,100302.59
2018-08-16T09:23:58.124Z,100294.00
2018-08-16T09:26:32.403Z,100282.80
2018-08-16T09:29:01.336Z,100283.89
2018-08-16T09:31:41.753Z,100276.78
2018-08-16T09:34:23.985Z,100271.66
2018-08-16T09:36:52.904Z,100264.77
2018-08-16T09:39:21.922Z,100267.48
2018-08-16T09:41:52.573Z,100268.74
2018-08-16T09:44:21.604Z,100259.48
2018-08-16T09:47:09.473Z,100260.06
2018-08-16T09:49:42.383Z,100257.75
2018-08-16T09:52:12.014Z,100250.83
2018-08-16T09:54:40.950Z,100253.41
2018-08-16T09:57:10.949Z,100249.36
2018-08-16T09:59:39.969Z,100247.28
2018-08-16T10:02:12.206Z,100248.05
2018-08-16T10:04:41.112Z,100233.77
2018-08-16T10:07:10.052Z,100241.28
2018-08-16T10:09:39.065Z,100238.64
2018-08-16T10:12:08.001Z,100234.92
2018-08-16T10:14:36.916Z,100239.98
2018-08-16T10:17:05.868Z,100232.95
2018-08-16T10:19:34.844Z,100230.35
2018-08-16T10:22:03.783Z,100228.97
2018-08-16T10:24:32.737Z,100223.05
2018-08-16T10:27:01.854Z,100219.64
2018-08-16T10:29:30.684Z,100222.70
2018-08-16T10:32:01.255Z,100226.17
2018-08-16T10:34:31.351Z,100220.20
2018-08-16T10:37:01.608Z,100244.47
2018-08-16T10:39:30.920Z,100210.46
2018-08-16T10:42:04.445Z,100208.11
2018-08-16T10:44:33.580Z,100202.19
2018-08-16T10:47:02.512Z,100201.45
2018-08-16T10:49:31.503Z,100203.81
2018-08-16T10:52:03.957Z,100204.69
2018-08-16T10:54:33.056Z,100200.83
2018-08-16T10:57:01.997Z,100198.52
2018-08-16T10:59:30.960Z,100193.45
2018-08-16T11:02:00.517Z,100196.87
2018-08-16T11:04:29.586Z,100194.26
2018-08-16T11:06:58.633Z,100202.66
2018-08-16T11:09:27.573Z,100200.83
2018-08-16T11:11:56.976Z,100189.69
2018-08-16T11:14:26.005Z,100182.09
2018-08-16T11:16:55.036Z,100175.76
2018-08-16T11:19:23.965Z,100173.69
2018-08-16T11:21:56.125Z,100168.80
2018-08-16T11:24:25.089Z,100163.97
2018-08-16T11:26:54.032Z,100158.22
2018-08-16T11:29:23.240Z,100157.35
2018-08-16T11:31:53.374Z,100149.59
2018-08-16T11:34:22.368Z,100153.25
2018-08-16T11:36:51.306Z,100149.09
2018-08-16T11:39:20.308Z,100149.89
2018-08-16T11:41:50.573Z,100149.19
2018-08-16T11:44:19.517Z,100148.70
2018-08-16T11:46:48.464Z,100135.64
2018-08-16T11:49:17.402Z,100150.30
2018-08-16T11:51:46.341Z,100144.94
2018-08-16T11:54:18.371Z,100149.63
2018-08-16T11:56:47.345Z,100136.98
2018-08-16T11:59:16.292Z,100121.28
2018-08-16T12:01:46.413Z,100136.78
2018-08-16T12:04:15.378Z,100132.41
2018-08-16T12:06:44.566Z,100127.00
2018-08-16T12:09:13.512Z,100126.61
2018-08-16T12:11:42.481Z,100126.49
2018-08-16T12:14:11.408Z,100123.72
2018-08-16T12:16:40.360Z,100118.89
2018-08-16T12:19:09.314Z,100119.33
2018-08-16T12:21:38.257Z,100126.55
2018-08-16T12:24:07.217Z,100116.15
2018-08-16T12:26:36.392Z,100108.86
2018-08-16T12:29:05.392Z,100105.83
2018-08-16T12:31:37.466Z,100105.52
2018-08-16T12:34:06.497Z,100105.98
2018-08-16T12:36:35.472Z,100095.39
2018-08-16T12:39:05.713Z,100106.72
2018-08-16T12:41:37.373Z,100094.31
2018-08-16T12:44:06.397Z,100095.30
2018-08-16T12:46:35.419Z,100086.77
2018-08-16T12:49:04.456Z,100089.35
2018-08-16T12:51:33.934Z,100094.45
2018-08-16T12:54:02.900Z,100092.11
2018-08-16T12:56:31.848Z,100096.03
2018-08-16T12:59:00.883Z,100085.27
2018-08-16T13:01:31.210Z,100083.94
2018-08-16T13:04:00.145Z,100069.26
2018-08-16T13:06:29.156Z,100060.61
2018-08-16T13:08:58.126Z,100054.08
2018-08-16T13:11:27.142Z,100057.36
2018-08-16T13:13:56.107Z,100056.03
2018-08-16T13:16:25.088Z,100053.16
2018-08-16T13:18:54.784Z,100061.61
2018-08-16T13:21:27.937Z,100051.86
2018-08-16T13:23:56.976Z,100040.05
2018-08-16T13:26:25.992Z,100043.25
2018-08-16T13:28:54.947Z,100040.89
2018-08-16T13:31:24.725Z,100029.32
2018-08-16T13:33:54.047Z,100035.89
2018-08-16T13:36:23.025Z,100033.89
2018-08-16T13:38:51.995Z,100024.30
2018-08-16T13:41:21.447Z,100023.19
2018-08-16T13:43:50.612Z,100017.64
2018-08-16T13:46:19.550Z,100017.64
2018-08-16T13:48:48.507Z,100019.35
2018-08-16T13:51:22.393Z,100008.10
2018-08-16T13:53:51.335Z,100009.02
2018-08-16T13:56:20.316Z,100014.98
2018-08-16T13:58:49.333Z,99996.52
2018-08-16T14:01:18.277Z,99995.20
2018-08-16T14:03:47.261Z,99997.47
2018-08-16T14:06:16.212Z,99993.30
2018-08-16T14:08:45.122Z,99994.53
2018-08-16T14:11:14.103Z,100004.41
2018-08-16T14:13:43.061Z,100001.05
2018-08-16T14:16:11.991Z,100014.88
2018-08-16T14:18:41.011Z,100000.41
2018-08-16T14:21:09.957Z,99997.31
2018-08-16T14:23:39.123Z,99996.37
2018-08-16T14:26:08.076Z,99988.13
2018-08-16T14:28:37.518Z,99998.35
2018-08-16T14:31:06.475Z,99986.37
2018-08-16T14:33:36.514Z,99987.55
2018-08-16T14:36:05.439Z,99991.41
2018-08-16T14:38:34.504Z,99989.88
2018-08-16T14:41:03.458Z,99995.20
2018-08-16T14:43:32.452Z,99995.17
2018-08-16T14:46:01.526Z,99984.77
2018-08-16T14:48:30.764Z,99986.49
2018-08-16T14:50:59.729Z,99970.08
2018-08-16T14:53:28.684Z,99970.58
2018-08-16T14:55:57.652Z,99981.21
2018-08-16T14:58:26.751Z,99968.12
2018-08-16T15:00:55.860Z,99963.95
2018-08-16T15:03:24.844Z,99954.09
2018-08-16T15:05:53.761Z,99962.48
2018-08-16T15:08:22.737Z,99960.30
2018-08-16T15:10:51.725Z,99958.23
2018-08-16T15:13:20.719Z,99961.22
2018-08-16T15:15:49.687Z,99956.98
2018-08-16T15:18:18.672Z,99957.36
2018-08-16T15:20:47.659Z,99954.95
2018-08-16T15:23:16.592Z,99948.04
2018-08-16T15:25:45.511Z,99949.03
2018-08-16T15:28:29.223Z,99952.12
2018-08-16T15:31:00.764Z,99953.27
2018-08-16T15:33:29.763Z,99942.83
2018-08-16T15:35:58.696Z,99948.23
2018-08-16T15:38:27.643Z,99945.61
2018-08-16T15:40:56.651Z,99941.26
2018-08-16T15:43:25.637Z,99939.81
2018-08-16T15:45:54.596Z,99939.40
2018-08-16T15:48:24.326Z,99936.34
2018-08-16T15:50:53.257Z,99940.23
2018-08-16T15:53:22.244Z,99935.41
2018-08-16T15:55:51.136Z,99938.86
2018-08-16T15:58:20.125Z,99927.33
2018-08-16T16:00:49.292Z,99934.97
2018-08-16T16:03:18.205Z,99933.66
2018-08-16T16:05:47.282Z,99926.94
2018-08-16T16:08:16.144Z,99929.46
2018-08-16T16:10:45.083Z,99925.86
2018-08-16T16:13:14.064Z,99926.11
2018-08-16T16:15:43.009Z,99926.23
2018-08-16T16:18:11.950Z,99927.41
2018-08-16T16:20:40.863Z,99927.60
2018-08-16T16:23:09.792Z,99930.07
2018-08-16T16:25:38.729Z,99919.98
2018-08-16T16:28:07.868Z,99922.11
2018-08-16T16:30:36.772Z,99917.80
2018-08-16T16:33:05.739Z,99915.94
2018-08-16T16:35:34.653Z,99911.38
2018-08-16T16:38:03.611Z,99915.77
2018-08-16T16:40:32.537Z,99920.45
2018-08-16T16:43:01.594Z,99914.81
2018-08-16T16:45:30.583Z,99918.59
2018-08-16T16:48:00.167Z,99914.45
2018-08-16T16:50:29.683Z,99914.02
2018-08-16T16:52:58.827Z,99905.34
2018-08-16T16:55:27.913Z,99908.14
2018-08-16T16:57:56.889Z,99907.94
2018-08-16T17:00:25.848Z,99902.83
2018-08-16T17:02:54.829Z,99900.18
2018-08-16T17:05:23.833Z,99904.57
2018-08-16T17:07:52.775Z,99903.15
2018-08-16T17:10:21.797Z,99903.11
2018-08-16T17:12:50.725Z,99902.24
2018-08-16T17:15:19.766Z,99902.75
2018-08-16T17:17:48.741Z,99900.55
2018-08-16T17:20:17.726Z,99901.48
2018-08-16T17:22:47.517Z,99899.81
2018-08-16T17:25:17.174Z,99906.20
2018-08-16T17:27:46.137Z,99902.06
2018-08-16T17:30:15.141Z,99903.70
2018-08-16T17:32:44.123Z,99899.87
2018-08-16T17:35:14.099Z,99899.34
2018-08-16T17:37:43.163Z,99897.41
2018-08-16T17:40:12.209Z,99898.47
2018-08-16T17:42:41.387Z,99895.56
2018-08-16T17:45:10.382Z,99899.38
2018-08-16T17:47:39.533Z,99899.08
2018-08-16T17:50:08.498Z,99903.22
2018-08-16T17:52:37.470Z,99898.22
2018-08-16T17:55:06.566Z,99899.27
2018-08-16T17:57:35.560Z,99895.78
2018-08-16T18:00:06.218Z,99901.14
2018-08-16T18:02:35.961Z,99903.61
2018-08-16T18:05:05.209Z,99903.27
2018-08-16T18:07:34.338Z,99911.59
2018-08-16T18:10:03.416Z,99906.52
2018-08-16T18:12:32.385Z,99909.89
2018-08-16T18:15:01.364Z,99908.98
2018-08-16T18:17:30.419Z,99904.47
2018-08-16T18:19:59.387Z,99906.91
2018-08-16T18:22:28.406Z,99911.08
2018-08-16T18:24:57.378Z,99908.38
2018-08-16T18:27:26.368Z,99908.80
2018-08-16T18:29:55.741Z,99905.86
2018-08-16T18:32:25.154Z,99911.59
2018-08-16T18:34:54.802Z,99913.77
2018-08-16T18:37:24.515Z,99913.41
2018-08-16T18:39:54.040Z,99913.80
2018-08-16T18:42:23.985Z,99920.88
2018-08-16T18:44:53.067Z,99920.88
2018-08-16T18:47:21.955Z,99922.66
2018-08-16T18:49:50.998Z,99929.70
2018-08-16T18:52:19.962Z,99926.36
2018-08-16T18:54:48.993Z,99930.28
2018-08-16T18:57:17.979Z,99935.55
2018-08-16T18:59:46.997Z,99928.88
2018-08-16T19:02:15.948Z,99928.84
2018-08-16T19:04:44.933Z,99935.67
2018-08-16T19:07:13.865Z,99939.74
2018-08-16T19:09:43.046Z,99936.78
2018-08-16T19:12:12.095Z,99938.73
2018-08-16T19:14:42.087Z,99940.80
2018-08-16T19:17:12.101Z,99939.16
2018-08-16T19:19:41.095Z,99936.38
2018-08-16T19:22:10.169Z,99937.72
2018-08-16T19:24:39.133Z,99930.97
2018-08-16T19:27:08.130Z,99936.83
2018-08-16T19:29:37.128Z,99932.86
2018-08-16T19:32:06.593Z,99929.23
2018-08-16T19:34:36.221Z,99935.03
2018-08-16T19:37:05.420Z,99930.52
2018-08-16T19:39:34.392Z,99932.05
2018-08-16T19:42:03.340Z,99930.59
2018-08-16T19:44:32.560Z,99930.29
2018-08-16T19:47:01.642Z,99932.51
2018-08-16T19:49:31.381Z,99935.85
2018-08-16T19:52:01.091Z,99932.63
2018-08-16T19:54:30.146Z,99928.11
2018-08-16T19:56:59.267Z,99927.67
2018-08-16T19:59:28.311Z,99932.25
2018-08-16T20:01:57.278Z,99926.11
2018-08-16T20:04:26.370Z,99929.78
2018-08-16T20:06:55.338Z,99922.27
2018-08-16T20:09:24.235Z,99928.34
2018-08-16T20:11:53.228Z,99928.01
2018-08-16T20:14:22.349Z,99916.75
2018-08-16T20:16:51.296Z,99926.95
2018-08-16T20:19:20.293Z,99923.48
2018-08-16T20:21:49.218Z,99924.48
2018-08-16T20:24:18.454Z,99929.62
2018-08-16T20:26:48.078Z,99924.45
2018-08-16T20:29:17.046Z,99937.45
2018-08-16T20:31:46.138Z,99930.94
2018-08-16T20:34:15.064Z,99936.45
2018-08-16T20:36:44.034Z,99934.00
2018-08-16T20:39:13.013Z,99935.14
2018-08-16T20:41:41.980Z,99938.32
2018-08-16T20:44:10.935Z,99932.33
2018-08-16T20:46:39.935Z,99932.72
2018-08-16T20:49:08.961Z,99934.48
2018-08-16T20:51:38.004Z,99928.71
2018-08-16T20:54:06.979Z,99932.90
2018-08-16T20:56:35.927Z,99933.95
2018-08-16T20:59:05.572Z,99932.84
2018-08-16T21:01:35.217Z,99934.17
2018-08-16T21:04:04.348Z,99939.64
2018-08-16T21:06:33.293Z,99944.69
2018-08-16T21:09:02.308Z,99948.36
2018-08-16T21:11:31.307Z,99945.91
2018-08-16T21:14:00.310Z,99946.88
2018-08-16T21:16:29.316Z,99953.16
2018-08-16T21:18:58.485Z,99955.23
2018-08-16T21:21:29.143Z,99950.16
2018-08-16T21:23:58.432Z,99954.05
2018-08-16T21:26:27.466Z,99953.19
2018-08-16T21:28:56.522Z,99955.64
2018-08-16T21:31:25.570Z,99954.85
2018-08-16T21:33:55.351Z,99954.66
2018-08-16T21:36:25.016Z,99959.17
2018-08-16T21:38:54.023Z,99963.64
2018-08-16T21:41:23.080Z,99959.02
2018-08-16T21:43:52.229Z,99960.77
2018-08-16T21:46:21.433Z,99961.20
2018-08-16T21:48:50.460Z,99961.94
2018-08-16T21:51:19.496Z,99968.77
2018-08-16T21:53:48.507Z,99964.70
2018-08-16T21:56:17.497Z,99966.22
2018-08-16T21:58:46.480Z,99965.30
2018-08-16T22:01:15.996Z,99963.36
2018-08-16T22:03:45.061Z,99964.09
2018-08-16T22:07:29.063Z,99972.39
2018-08-16T22:09:58.740Z,99974.64
2018-08-16T22:12:28.527Z,99976.20
2018-08-16T22:14:57.494Z,99976.70
2018-08-16T22:17:26.634Z,99972.83
2018-08-16T22:19:56.447Z,99970.24
2018-08-16T22:22:26.201Z,99968.35
2018-08-16T22:24:56.010Z,99972.49
2018-08-16T22:27:24.914Z,99970.02
2018-08-16T22:29:53.852Z,99966.20
2018-08-16T22:32:22.773Z,99968.79
2018-08-16T22:34:51.699Z,99966.48
2018-08-16T22:37:20.613Z,99967.48
2018-08-16T22:39:49.569Z,99968.69
2018-08-16T22:42:18.520Z,99970.89
2018-08-16T22:44:47.516Z,99968.41
2018-08-16T22:47:16.458Z,99963.23
2018-08-16T22:49:45.350Z,99978.42
2018-08-16T22:52:14.299Z,99962.69
2018-08-16T22:54:43.307Z,99970.80
2018-08-16T22:57:12.295Z,99962.90
2018-08-16T22:59:41.244Z,99964.95
2018-08-16T23:02:10.176Z,99964.20
2018-08-16T23:04:39.109Z,99965.31
2018-08-16T23:07:08.303Z,99959.42
2018-08-16T23:09:37.664Z,99965.08
2018-08-16T23:12:06.677Z,99959.45
2018-08-16T23:14:35.886Z,99960.41
2018-08-16T23:17:04.780Z,99958.46
2018-08-16T23:19:33.715Z,99960.47
2018-08-16T23:22:02.640Z,99957.04
2018-08-16T23:24:31.560Z,99960.98
2018-08-16T23:27:00.495Z,99958.64
2018-08-16T23:29:29.445Z,99962.59
2018-08-16T23:31:58.384Z,99955.98
2018-08-16T23:34:27.313Z,99958.98
2018-08-16T23:36:56.324Z,99956.73
2018-08-16T23:39:25.437Z,99957.68
2018-08-16T23:41:54.368Z,99954.06
2018-08-16T23:44:23.290Z,99954.06
2018-08-16T23:46:52.516Z,99952.84
2018-08-16T23:49:21.472Z,99938.52
2018-08-16T23:51:50.399Z,99935.14
2018-08-16T23:54:19.376Z,99938.47
2018-08-16T23:56:48.333Z,99934.06
2018-08-16T23:59:17.264Z,99932.27
